Lilly, GA (31051)

3:06 PM EST on February 10, 2016 (GMT -0500)
Lake Blackshear | | Change Station
CLOSE
Current Station
Personal Weather Station
Location: Cobb, GA
Elevation: 256 ft
Nearby Weather Stations

Elev 256 ft 31.99 °N, 83.95 °W | Updated 3 seconds ago

Clear
Clear
42.8 °F
Feels Like 43 °F
N
0.0
Wind Variable Wind from SSW

Today
High -- | Low -- °F
--% Chance of Precip.
Yesterday
High -- | Low -- °F
Precip. -- in
Pressure 30.16 in
Visibility 10.0 miles
Clouds Clear
Windchill 43 °F
Dew Point 23 °F
Humidity 46%
Rainfall 0.00 in
Snow Depth Not available.
7:22 AM 6:17 PM
Waxing Crescent, 7% visible
METAR KCKF 101955Z AUTO 29010G20KT 10SM CLR 08/M10 A3016 RMK AO2 T00751105
Pressure 30.16 in
Visibility 10.0 miles
Clouds Clear
Windchill 43 °F
Dew Point 23 °F
Humidity 46%
Rainfall 0.00 in
Snow Depth Not available.
7:22 AM 6:17 PM
Waxing Crescent, 7% visible
METAR KCKF 101955Z AUTO 29010G20KT 10SM CLR 08/M10 A3016 RMK AO2 T00751105

10-Day Weather Forecast

Almanac

Astronomy

Feb. 10, 2016 Rise Set
Actual Time
Civil Twilight
Nautical Twilight
Astronomical Twilight
Moon
Length of Visible Light
Length of Day
Tomorrow will be .
, % of the Moon is Illuminated

Today's Extremes

State Highs State Lows

Community

WunderPhotos

Upload Photos

1,891,929 photos uploaded!

WunderBlog® & News

Nearby

Air Quality

  Air Quality AQ Index Pollutant
Not available.

Snow Depth

Station Depth Elevation

Earthquake Activity

City Distance Mag. Time & Date
Minimum magnitude displayed is 2.5.

Coastal Water Temperatures

Place Temperature

Stations

Nearby Weather Stations

Station Location Temp. Windchill Dew Point Humidity Wind Precip. Elev Updated Type
                   

Watches & Warnings

There are currently no watches in effect.